createdAt,value
2022-11-25T00:02:44.978Z,3.30
2022-11-25T00:06:20.545Z,3.30
2022-11-25T00:09:42.675Z,3.30
2022-11-25T00:13:04.652Z,3.20
2022-11-25T00:16:27.059Z,3.20
2022-11-25T00:19:49.140Z,3.20
2022-11-25T00:23:11.355Z,3.20
2022-11-25T00:26:35.116Z,3.10
2022-11-25T00:29:59.227Z,3.10
2022-11-25T00:33:21.170Z,3.00
2022-11-25T00:36:43.502Z,3.00
2022-11-25T00:40:06.499Z,2.90
2022-11-25T00:43:47.270Z,3.00
2022-11-25T00:47:16.402Z,3.00
2022-11-25T00:50:38.372Z,3.00
2022-11-25T00:54:00.343Z,3.00
2022-11-25T00:57:24.012Z,3.00
2022-11-25T01:00:46.337Z,3.00
2022-11-25T01:04:08.640Z,3.00
2022-11-25T01:07:30.712Z,3.10
2022-11-25T01:11:02.788Z,3.10
2022-11-25T01:14:26.072Z,3.10
2022-11-25T01:17:48.027Z,3.10
2022-11-25T01:21:18.726Z,3.10
2022-11-25T01:24:40.772Z,3.10
2022-11-25T01:28:02.717Z,3.10
2022-11-25T01:31:27.712Z,3.10
2022-11-25T01:34:49.731Z,3.10
2022-11-25T01:38:11.704Z,3.10
2022-11-25T01:41:35.082Z,3.10
2022-11-25T01:45:28.867Z,3.10
2022-11-25T01:49:03.120Z,3.00
2022-11-25T01:52:30.193Z,3.00
2022-11-25T01:55:57.232Z,2.90
2022-11-25T01:59:19.527Z,2.90
2022-11-25T02:02:41.920Z,2.90
2022-11-25T02:06:07.119Z,3.00
2022-11-25T02:09:30.077Z,3.00
2022-11-25T02:12:53.374Z,2.90
2022-11-25T02:16:15.621Z,3.00
2022-11-25T02:20:01.564Z,3.00
2022-11-25T02:23:44.072Z,3.00
2022-11-25T02:27:06.741Z,3.00
2022-11-25T02:30:29.126Z,3.00
2022-11-25T02:33:51.274Z,3.00
2022-11-25T02:37:13.934Z,3.00
2022-11-25T02:40:44.426Z,3.10
2022-11-25T02:44:07.671Z,3.10
2022-11-25T02:47:29.760Z,3.20
2022-11-25T02:50:52.154Z,3.20
2022-11-25T02:54:15.823Z,3.20
2022-11-25T02:57:37.878Z,3.10
2022-11-25T03:00:59.914Z,3.10
2022-11-25T03:04:22.582Z,3.10
2022-11-25T03:07:44.767Z,3.10
2022-11-25T03:11:06.958Z,3.10
2022-11-25T03:14:29.297Z,3.10
2022-11-25T03:17:51.881Z,3.20
2022-11-25T03:21:13.873Z,3.20
2022-11-25T03:24:36.224Z,3.30
2022-11-25T03:27:58.912Z,3.30
2022-11-25T03:31:21.132Z,3.40
2022-11-25T03:34:43.476Z,3.40
2022-11-25T03:38:05.834Z,3.40
2022-11-25T03:41:31.180Z,3.40
2022-11-25T03:44:53.305Z,3.40
2022-11-25T03:48:15.530Z,3.40
2022-11-25T03:51:37.920Z,3.40
2022-11-25T03:55:00.770Z,3.30
2022-11-25T03:58:26.661Z,3.30
2022-11-25T04:01:50.157Z,3.20
2022-11-25T04:05:12.241Z,3.20
2022-11-25T04:08:34.377Z,3.20
2022-11-25T04:12:15.499Z,3.30
2022-11-25T04:15:55.479Z,3.40
2022-11-25T04:19:17.603Z,3.50
2022-11-25T04:22:39.705Z,3.60
2022-11-25T04:26:02.335Z,3.60
2022-11-25T04:29:32.206Z,3.50
2022-11-25T04:32:57.977Z,3.40
2022-11-25T04:36:21.371Z,3.30
2022-11-25T04:39:43.633Z,3.20
2022-11-25T04:43:12.674Z,3.10
2022-11-25T04:46:42.527Z,3.10
2022-11-25T04:50:06.404Z,3.10
2022-11-25T04:53:33.587Z,3.20
2022-11-25T04:56:55.764Z,3.20
2022-11-25T05:00:22.173Z,3.20
2022-11-25T05:03:49.595Z,3.30
2022-11-25T05:07:15.298Z,3.30
2022-11-25T05:10:39.670Z,3.30
2022-11-25T05:14:01.776Z,3.30
2022-11-25T05:17:26.794Z,3.30
2022-11-25T05:20:48.882Z,3.40
2022-11-25T05:24:15.153Z,3.40
2022-11-25T05:27:37.944Z,3.50
2022-11-25T05:31:03.930Z,3.50
2022-11-25T05:34:26.059Z,3.50
2022-11-25T05:37:48.934Z,3.40
2022-11-25T05:41:11.999Z,3.40
2022-11-25T05:44:36.329Z,3.30
2022-11-25T05:47:58.590Z,3.30
2022-11-25T05:51:23.352Z,3.20
2022-11-25T05:54:46.221Z,3.20
2022-11-25T05:58:08.300Z,3.10
2022-11-25T06:01:30.702Z,3.10
2022-11-25T06:04:52.833Z,3.10
2022-11-25T06:08:14.848Z,3.00
2022-11-25T06:11:37.022Z,3.00
2022-11-25T06:14:59.383Z,3.00
2022-11-25T06:18:21.390Z,3.00
2022-11-25T06:21:44.612Z,3.00
2022-11-25T06:25:09.026Z,3.10
2022-11-25T06:28:36.280Z,3.10
2022-11-25T06:31:58.336Z,3.00
2022-11-25T06:35:32.745Z,3.00
2022-11-25T06:38:57.413Z,2.90
2022-11-25T06:42:19.471Z,3.00
2022-11-25T06:45:44.752Z,3.00
2022-11-25T06:49:07.293Z,3.00
2022-11-25T06:52:31.691Z,3.10
2022-11-25T06:56:27.683Z,3.10
2022-11-25T06:59:49.901Z,3.20
2022-11-25T07:03:11.970Z,3.20
2022-11-25T07:06:33.984Z,3.20
2022-11-25T07:09:56.033Z,3.30
2022-11-25T07:13:18.013Z,3.30
2022-11-25T07:16:43.887Z,3.30
2022-11-25T07:20:06.899Z,3.40
2022-11-25T07:23:28.865Z,3.40
2022-11-25T07:26:50.817Z,3.50
2022-11-25T07:31:09.845Z,3.70
2022-11-25T07:34:00.732Z,4.30
2022-11-25T07:37:23.169Z,5.20
2022-11-25T07:40:45.226Z,6.70
2022-11-25T07:44:08.857Z,8.20
2022-11-25T07:47:41.179Z,9.30
2022-11-25T07:51:03.447Z,10.40
2022-11-25T07:54:25.772Z,11.60
2022-11-25T07:57:47.748Z,12.30
2022-11-25T08:01:11.786Z,12.90
2022-11-25T08:04:33.842Z,13.70
2022-11-25T08:07:56.204Z,14.50
2022-11-25T08:11:20.798Z,14.90
2022-11-25T08:14:42.816Z,15.40
2022-11-25T08:18:04.778Z,15.70
2022-11-25T08:21:30.615Z,16.40
2022-11-25T08:24:52.651Z,16.70
2022-11-25T08:28:14.729Z,17.00
2022-11-25T08:31:38.146Z,17.50
2022-11-25T08:35:00.300Z,17.90
2022-11-25T08:38:22.479Z,18.40
2022-11-25T08:41:44.514Z,18.90
2022-11-25T08:45:07.998Z,19.00
2022-11-25T08:48:29.965Z,19.40
2022-11-25T08:51:51.911Z,19.60
2022-11-25T08:55:13.943Z,19.90
2022-11-25T08:58:36.369Z,18.70
2022-11-25T09:01:58.427Z,18.60
2022-11-25T09:05:20.445Z,19.00
2022-11-25T09:08:44.075Z,19.50
2022-11-25T09:12:06.270Z,18.90
2022-11-25T09:15:28.437Z,19.10
2022-11-25T09:18:55.595Z,18.80
2022-11-25T09:22:18.187Z,18.80
2022-11-25T09:25:40.212Z,19.20
2022-11-25T09:29:02.269Z,19.10
2022-11-25T09:32:24.287Z,19.50
2022-11-25T09:35:47.421Z,19.80
2022-11-25T09:39:09.398Z,18.90
2022-11-25T09:42:58.719Z,19.00
2022-11-25T09:46:46.269Z,19.50
2022-11-25T09:50:25.007Z,19.40
2022-11-25T09:53:56.866Z,18.90
2022-11-25T09:57:59.264Z,18.80
2022-11-25T10:01:25.582Z,18.90
2022-11-25T10:05:22.459Z,18.20
2022-11-25T10:08:58.420Z,17.20
2022-11-25T10:12:34.598Z,17.10
2022-11-25T10:16:02.432Z,17.20
2022-11-25T10:19:36.504Z,16.90
2022-11-25T10:23:05.933Z,17.10
2022-11-25T10:26:37.012Z,16.90
2022-11-25T10:30:12.864Z,16.50
2022-11-25T10:33:56.968Z,16.10
2022-11-25T10:37:34.779Z,15.80
2022-11-25T10:40:57.225Z,15.90
2022-11-25T10:44:25.367Z,15.50
2022-11-25T10:47:50.142Z,15.30
2022-11-25T10:51:49.755Z,15.10
2022-11-25T10:55:25.522Z,15.00
2022-11-25T10:58:48.295Z,15.00
2022-11-25T11:02:25.126Z,15.10
2022-11-25T11:05:50.153Z,14.80
2022-11-25T11:09:38.588Z,14.40
2022-11-25T11:13:03.053Z,14.30
2022-11-25T11:16:37.152Z,14.30
2022-11-25T11:20:08.305Z,14.20
2022-11-25T11:23:30.781Z,14.20
2022-11-25T11:27:09.974Z,14.10
2022-11-25T11:30:33.768Z,13.90
2022-11-25T11:34:13.767Z,13.40
2022-11-25T11:37:50.176Z,13.10
2022-11-25T11:41:31.231Z,13.10
2022-11-25T11:45:25.213Z,12.90
2022-11-25T11:49:05.566Z,12.80
2022-11-25T11:52:46.956Z,12.80
2022-11-25T11:56:34.671Z,12.70
2022-11-25T12:00:07.088Z,12.70
2022-11-25T12:03:41.973Z,12.60
2022-11-25T12:07:26.917Z,12.60
2022-11-25T12:11:09.132Z,12.60
2022-11-25T12:14:55.702Z,12.70
2022-11-25T12:18:46.904Z,12.80
2022-11-25T12:22:32.614Z,12.80
2022-11-25T12:26:01.872Z,12.80
2022-11-25T12:29:53.291Z,12.70
2022-11-25T12:33:28.114Z,12.60
2022-11-25T12:36:50.330Z,12.70
2022-11-25T12:40:20.379Z,12.80
2022-11-25T12:43:48.949Z,12.90
2022-11-25T12:47:11.793Z,12.80
2022-11-25T12:50:56.200Z,12.80
2022-11-25T12:54:37.161Z,12.60
2022-11-25T12:58:30.590Z,12.50
2022-11-25T13:02:24.483Z,12.40
2022-11-25T13:06:19.911Z,12.20
2022-11-25T13:10:14.108Z,12.20
2022-11-25T13:13:48.559Z,12.20
2022-11-25T13:17:13.793Z,12.30
2022-11-25T13:20:44.241Z,12.30
2022-11-25T13:24:46.520Z,12.30
2022-11-25T13:28:30.086Z,12.30
2022-11-25T13:31:59.962Z,12.40
2022-11-25T13:35:22.013Z,12.30
2022-11-25T13:39:05.659Z,12.30
2022-11-25T13:42:28.308Z,12.30
2022-11-25T13:45:50.616Z,12.20
2022-11-25T13:49:23.397Z,12.20
2022-11-25T13:53:01.181Z,12.10
2022-11-25T13:56:29.277Z,11.90
2022-11-25T14:00:19.653Z,11.80
2022-11-25T14:03:47.722Z,11.80
2022-11-25T14:07:24.436Z,11.70
2022-11-25T14:11:01.637Z,11.70
2022-11-25T14:14:32.586Z,11.60
2022-11-25T14:18:15.309Z,11.40
2022-11-25T14:21:40.236Z,11.30
2022-11-25T14:25:29.148Z,11.20
2022-11-25T14:28:53.933Z,11.10
2022-11-25T14:32:46.963Z,10.90
2022-11-25T14:36:14.539Z,10.80
2022-11-25T14:39:55.614Z,10.70
2022-11-25T14:43:22.220Z,10.50
2022-11-25T14:46:54.309Z,10.30
2022-11-25T14:53:59.441Z,10.00
2022-11-25T14:57:26.713Z,9.70
2022-11-25T15:00:59.506Z,9.60
2022-11-25T15:04:25.744Z,9.40
2022-11-25T15:07:58.688Z,9.20
2022-11-25T15:11:23.815Z,9.00
2022-11-25T15:14:53.765Z,8.90
2022-11-25T15:18:21.291Z,8.70
2022-11-25T15:22:20.864Z,8.60
2022-11-25T15:25:26.585Z,8.40
2022-11-25T15:29:06.029Z,8.30
2022-11-25T15:32:31.640Z,8.20
2022-11-25T15:35:54.037Z,8.00
2022-11-25T15:39:27.417Z,7.90
2022-11-25T15:42:49.452Z,7.80
2022-11-25T15:46:11.690Z,7.70
2022-11-25T15:49:36.146Z,7.50
2022-11-25T15:53:01.097Z,7.40
2022-11-25T15:56:26.603Z,7.30
2022-11-25T15:59:50.050Z,7.20
2022-11-25T16:03:23.453Z,7.10
2022-11-25T16:06:56.408Z,7.00
2022-11-25T16:10:22.959Z,6.90
2022-11-25T16:13:47.556Z,6.80
2022-11-25T16:17:12.713Z,6.70
2022-11-25T16:20:34.733Z,6.60
2022-11-25T16:24:17.171Z,6.50
2022-11-25T16:27:39.452Z,6.40
2022-11-25T16:31:02.443Z,6.30
2022-11-25T16:34:25.623Z,6.20
2022-11-25T16:37:49.435Z,6.20
2022-11-25T16:41:23.466Z,6.10
2022-11-25T16:44:48.723Z,6.10
2022-11-25T16:48:18.919Z,6.00
2022-11-25T16:51:41.365Z,6.00
2022-11-25T16:55:03.417Z,5.90
2022-11-25T16:58:26.387Z,5.90
2022-11-25T17:01:48.828Z,5.70
2022-11-25T17:05:20.272Z,5.70
2022-11-25T17:08:43.167Z,5.70
2022-11-25T17:12:07.144Z,5.70
2022-11-25T17:15:38.197Z,5.60
2022-11-25T17:19:00.785Z,5.60
2022-11-25T17:22:26.743Z,5.60
2022-11-25T17:25:50.103Z,5.60
2022-11-25T17:29:16.561Z,5.50
2022-11-25T17:32:38.590Z,5.50
2022-11-25T17:36:00.674Z,5.50
2022-11-25T17:39:22.793Z,5.40
2022-11-25T17:42:48.771Z,5.40
2022-11-25T17:46:15.734Z,5.50
2022-11-25T17:49:37.825Z,5.50
2022-11-25T17:52:59.765Z,5.50
2022-11-25T17:56:30.325Z,5.40
2022-11-25T17:59:52.413Z,5.30
2022-11-25T18:03:16.670Z,5.20
2022-11-25T18:06:38.712Z,5.10
2022-11-25T18:10:00.659Z,5.10
2022-11-25T18:13:22.792Z,5.00
2022-11-25T18:16:44.891Z,5.00
2022-11-25T18:20:20.101Z,4.90
2022-11-25T18:23:42.630Z,4.90
2022-11-25T18:27:06.527Z,4.90
2022-11-25T18:30:30.764Z,4.70
2022-11-25T18:33:52.916Z,4.70
2022-11-25T18:37:14.894Z,4.60
2022-11-25T18:40:40.337Z,4.60
2022-11-25T18:44:02.847Z,4.70
2022-11-25T18:47:24.846Z,4.70
2022-11-25T18:50:48.083Z,4.70
2022-11-25T18:54:10.456Z,4.70
2022-11-25T18:57:32.457Z,4.80
2022-11-25T19:01:01.497Z,4.80
2022-11-25T19:04:23.569Z,4.70
2022-11-25T19:07:46.890Z,4.70
2022-11-25T19:11:26.428Z,4.70
2022-11-25T19:14:50.261Z,4.60
2022-11-25T19:18:16.550Z,4.50
2022-11-25T19:21:38.540Z,4.50
2022-11-25T19:25:00.494Z,4.40
2022-11-25T19:28:22.754Z,4.30
2022-11-25T19:31:45.632Z,4.30
2022-11-25T19:35:08.548Z,4.30
2022-11-25T19:38:31.137Z,4.30
2022-11-25T19:41:54.328Z,4.30
2022-11-25T19:45:18.157Z,4.20
2022-11-25T19:48:40.241Z,4.20
2022-11-25T19:52:02.321Z,4.20
2022-11-25T19:55:31.567Z,4.20
2022-11-25T19:58:54.516Z,4.20
2022-11-25T20:02:22.829Z,4.20
2022-11-25T20:05:45.734Z,4.10
2022-11-25T20:09:12.415Z,4.10
2022-11-25T20:12:34.413Z,4.10
2022-11-25T20:15:58.383Z,4.10
2022-11-25T20:19:20.551Z,4.10
2022-11-25T20:23:00.888Z,4.10
2022-11-25T20:26:36.060Z,4.10
2022-11-25T20:29:58.071Z,4.10
2022-11-25T20:33:24.405Z,4.20
2022-11-25T20:36:47.123Z,4.20
2022-11-25T20:40:16.760Z,4.20
2022-11-25T20:43:41.558Z,4.20
2022-11-25T20:47:03.544Z,4.10
2022-11-25T20:50:25.593Z,4.20
2022-11-25T20:53:50.067Z,4.20
2022-11-25T20:57:12.034Z,4.20
2022-11-25T21:00:34.183Z,4.20
2022-11-25T21:03:56.270Z,4.20
2022-11-25T21:07:18.316Z,4.20
2022-11-25T21:10:41.539Z,4.20
2022-11-25T21:14:03.599Z,4.20
2022-11-25T21:17:25.573Z,4.20
2022-11-25T21:20:49.884Z,4.20
2022-11-25T21:24:18.488Z,4.20
2022-11-25T21:27:41.224Z,4.20
2022-11-25T21:31:08.384Z,4.20
2022-11-25T21:34:33.052Z,4.10
2022-11-25T21:37:55.186Z,4.10
2022-11-25T21:41:19.324Z,4.00
2022-11-25T21:44:42.431Z,4.00
2022-11-25T21:48:04.718Z,4.00
2022-11-25T21:51:26.763Z,3.90
2022-11-25T21:54:48.780Z,3.80
2022-11-25T21:58:29.916Z,3.80
2022-11-25T22:01:53.017Z,3.80
2022-11-25T22:05:26.961Z,3.70
2022-11-25T22:08:49.521Z,3.70
2022-11-25T22:12:27.542Z,3.60
2022-11-25T22:15:59.712Z,3.80
2022-11-25T22:19:24.405Z,3.90
2022-11-25T22:22:46.372Z,3.90
2022-11-25T22:26:17.733Z,4.00
2022-11-25T22:29:39.713Z,4.20
2022-11-25T22:33:03.531Z,4.30
2022-11-25T22:36:28.559Z,4.30
2022-11-25T22:39:51.002Z,4.30
2022-11-25T22:43:19.187Z,4.30
2022-11-25T22:46:41.254Z,4.30
2022-11-25T22:50:07.171Z,4.30
2022-11-25T22:53:29.497Z,4.30
2022-11-25T22:56:51.632Z,4.20
2022-11-25T23:00:22.311Z,4.20
2022-11-25T23:03:44.883Z,4.10
2022-11-25T23:07:12.083Z,4.10
2022-11-25T23:10:34.216Z,4.00
2022-11-25T23:13:56.157Z,4.00
2022-11-25T23:17:22.965Z,3.90
2022-11-25T23:20:44.955Z,3.90
2022-11-25T23:24:25.798Z,4.00
2022-11-25T23:27:48.504Z,4.10
2022-11-25T23:31:13.698Z,4.10
2022-11-25T23:34:36.141Z,4.10
2022-11-25T23:37:59.311Z,4.10
2022-11-25T23:41:24.222Z,4.10
2022-11-25T23:44:46.517Z,4.10
2022-11-25T23:48:10.313Z,4.20
2022-11-25T23:51:32.361Z,4.20
2022-11-25T23:54:55.013Z,4.20
2022-11-25T23:58:19.345Z,4.20
